Time;durP1;ratioP1;P1;durP2;ratioP2;P2;SDS_P1;SDS_P2;PMS_P1;PMS_P2;Temp;Humidity;BMP_temperature;BMP_pressure;BME280_temperature;BME280_humidity;BME280_pressure;Samples;Min_cycle;Max_cycle;Signal;HPM_P1;HPM_P2
2023/10/07 00:01:56;;;;;;;7.40;3.00;;;;;;;8.97;80.72;100588.88;88671;275;137846;-69
2023/10/07 00:03:58;;;;;;;6.10;3.50;;;;;;;8.99;80.65;100586.52;88732;283;23429;-71
2023/10/07 00:06:01;;;;;;;4.60;2.90;;;;;;;8.99;80.70;100579.78;88668;283;136585;-72
2023/10/07 00:08:03;;;;;;;5.90;2.90;;;;;;;8.98;80.70;100578.27;88717;283;136060;-72
2023/10/07 00:10:06;;;;;;;7.60;3.10;;;;;;;8.96;80.86;100570.34;88854;275;24484;-66
2023/10/07 00:12:14;;;;;;;6.20;3.60;;;;;;;8.94;80.79;100558.33;88623;280;137139;-70
2023/10/07 00:14:16;;;;;;;4.60;2.90;;;;;;;8.93;81.06;100553.18;88737;275;22541;-71
2023/10/07 00:16:18;;;;;;;5.90;3.30;;;;;;;8.84;81.09;100537.66;88686;279;136888;-71
2023/10/07 00:18:22;;;;;;;7.70;3.40;;;;;;;8.90;81.17;100545.68;88766;283;24169;-72
2023/10/07 00:20:26;;;;;;;4.70;3.10;;;;;;;8.88;81.24;100545.05;88774;279;136686;-70
2023/10/07 00:22:40;;;;;;;9.30;5.60;;;;;;;8.88;81.33;100540.30;88841;279;24849;-70
2023/10/07 00:24:48;;;;;;;6.00;3.60;;;;;;;8.86;81.75;100534.50;88691;279;136488;-69
2023/10/07 00:26:52;;;;;;;4.00;2.40;;;;;;;8.85;82.06;100528.88;89621;283;22524;-70
2023/10/07 00:29:00;;;;;;;3.30;2.70;;;;;;;8.88;81.95;100528.14;88688;275;138095;-69
2023/10/07 00:31:06;;;;;;;6.90;2.80;;;;;;;8.94;81.81;100528.78;88860;277;22587;-70
2023/10/07 00:33:09;;;;;;;7.80;3.60;;;;;;;8.96;81.56;100528.50;88647;282;138171;-68
2023/10/07 00:35:12;;;;;;;5.10;2.50;;;;;;;8.99;81.22;100523.82;88802;282;22592;-70
2023/10/07 00:37:15;;;;;;;5.30;2.90;;;;;;;9.02;81.36;100519.38;88594;279;135667;-69
2023/10/07 00:39:20;;;;;;;4.80;3.00;;;;;;;9.02;81.10;100511.19;88574;277;25050;-69
2023/10/07 00:41:26;;;;;;;6.40;2.70;;;;;;;9.03;81.30;100504.73;88508;284;136949;-70
2023/10/07 00:43:30;;;;;;;5.40;2.70;;;;;;;9.03;81.57;100500.98;88770;275;24212;-70
2023/10/07 00:45:33;;;;;;;6.60;4.10;;;;;;;9.04;81.70;100491.61;88638;282;135877;-70
2023/10/07 00:47:35;;;;;;;5.90;3.60;;;;;;;9.06;81.92;100491.70;88630;284;24064;-71
2023/10/07 00:49:42;;;;;;;6.20;3.30;;;;;;;9.07;82.10;100487.77;88518;283;136683;-69
2023/10/07 00:51:46;;;;;;;7.50;3.30;;;;;;;9.08;82.46;100494.35;88706;284;22541;-72
2023/10/07 00:54:16;;;;;;;5.00;3.60;;;;;;;9.09;82.35;100490.15;88613;282;136575;-70
2023/10/07 00:56:16;;;;;;;6.30;3.60;;;;;;;9.11;82.72;100484.83;88530;275;137348;-71
2023/10/07 00:58:21;;;;;;;6.00;3.00;;;;;;;9.11;82.93;100480.73;88564;281;22573;-73
2023/10/07 01:02:30;;;;;;;6.10;3.50;;;;;;;9.09;83.51;100477.05;88748;282;22523;-70
2023/10/07 01:04:42;;;;;;;4.60;3.10;;;;;;;9.06;83.81;100473.89;88687;279;135936;-70
2023/10/07 01:06:45;;;;;;;6.20;4.50;;;;;;;9.03;84.20;100470.31;88698;275;24276;-70
2023/10/07 01:08:50;;;;;;;7.10;3.30;;;;;;;9.02;84.50;100465.13;88595;279;135885;-72
2023/10/07 01:11:04;;;;;;;7.90;3.10;;;;;;;9.03;84.53;100462.50;88696;275;24013;-70
2023/10/07 01:13:24;;;;;;;7.70;3.50;;;;;;;9.08;84.51;100460.88;88504;280;136551;-70
2023/10/07 01:15:29;;;;;;;6.90;3.90;;;;;;;9.13;84.28;100453.16;88651;277;25166;-70
2023/10/07 01:17:31;;;;;;;5.60;3.20;;;;;;;9.16;84.19;100445.90;88741;279;137393;-71
2023/10/07 01:19:43;;;;;;;5.70;3.10;;;;;;;9.19;83.97;100438.16;88664;277;25337;-72
2023/10/07 01:22:09;;;;;;;7.70;2.80;;;;;;;9.22;83.83;100430.98;88486;280;136506;-72
2023/10/07 01:24:13;;;;;;;6.90;2.60;;;;;;;9.24;83.75;100432.22;88644;275;136884;-70
2023/10/07 01:26:15;;;;;;;5.50;2.90;;;;;;;9.27;83.72;100432.75;88683;282;22684;-70
2023/10/07 01:28:17;;;;;;;5.00;2.60;;;;;;;9.28;83.76;100429.83;88780;279;136100;-70
2023/10/07 01:30:26;;;;;;;4.10;2.80;;;;;;;9.30;83.62;100431.23;89341;275;22726;-70
2023/10/07 01:32:35;;;;;;;3.90;2.80;;;;;;;9.30;83.70;100424.70;89699;281;135400;-70
2023/10/07 01:34:50;;;;;;;7.40;2.80;;;;;;;9.32;83.55;100419.48;89770;276;22546;-71
2023/10/07 01:36:52;;;;;;;6.60;2.20;;;;;;;9.37;83.33;100421.17;88517;280;135869;-72
2023/10/07 01:38:54;;;;;;;8.40;2.40;;;;;;;9.42;83.19;100415.70;88527;284;24058;-71
2023/10/07 01:41:04;;;;;;;5.90;2.70;;;;;;;9.45;83.09;100408.71;88545;275;136023;-70
2023/10/07 01:43:07;;;;;;;7.20;2.90;;;;;;;9.49;82.85;100398.82;88721;275;23407;-72
2023/10/07 01:45:22;;;;;;;4.80;2.50;;;;;;;9.56;82.81;100390.82;88433;277;136887;-71
2023/10/07 01:47:24;;;;;;;5.30;3.00;;;;;;;9.63;82.79;100384.48;88810;280;22993;-69
2023/10/07 01:49:30;;;;;;;5.70;3.30;;;;;;;9.68;82.70;100371.78;88508;282;138213;-69
2023/10/07 01:51:32;;;;;;;2.90;2.70;;;;;;;9.75;82.58;100350.17;88867;281;22570;-70
2023/10/07 01:53:38;;;;;;;5.20;3.40;;;;;;;9.82;82.15;100336.63;88571;275;137861;-70
2023/10/07 01:55:43;;;;;;;8.40;3.20;;;;;;;9.88;81.74;100327.92;88777;279;25300;-71
2023/10/07 01:57:50;;;;;;;5.70;4.00;;;;;;;9.90;81.35;100319.27;88601;279;136829;-71
2023/10/07 01:59:52;;;;;;;5.50;3.80;;;;;;;9.93;80.99;100314.34;88789;277;22517;-71
2023/10/07 02:01:58;;;;;;;4.20;3.60;;;;;;;9.93;80.93;100313.38;88474;276;136030;-69
2023/10/07 02:04:06;;;;;;;7.40;3.00;;;;;;;9.94;80.86;100316.36;88744;275;22620;-69
2023/10/07 02:06:08;;;;;;;3.30;3.00;;;;;;;9.94;80.85;100316.04;88789;275;22538;-74
2023/10/07 02:08:14;;;;;;;5.80;3.00;;;;;;;9.95;80.66;100316.63;88752;282;136719;-69
2023/10/07 02:10:26;;;;;;;5.70;2.90;;;;;;;9.96;80.78;100319.75;88817;281;24055;-70
2023/10/07 02:12:32;;;;;;;5.50;3.20;;;;;;;9.95;80.77;100326.34;88707;274;137875;-72
2023/10/07 02:14:35;;;;;;;8.20;3.20;;;;;;;9.97;80.99;100328.15;88866;279;25197;-70
2023/10/07 02:16:36;;;;;;;2.40;2.20;;;;;;;9.96;80.98;100329.05;88485;283;137482;-70
2023/10/07 02:18:44;;;;;;;5.30;3.00;;;;;;;9.96;81.14;100328.79;88584;283;25216;-70
2023/10/07 02:21:06;;;;;;;5.20;3.20;;;;;;;9.91;81.49;100320.50;88603;275;137130;-70
2023/10/07 02:23:13;;;;;;;7.30;3.10;;;;;;;9.78;82.20;100310.95;88701;284;25108;-71
2023/10/07 02:25:20;;;;;;;5.80;3.40;;;;;;;9.84;82.55;100322.58;88768;274;136063;-68
2023/10/07 02:27:25;;;;;;;4.70;3.00;;;;;;;9.82;82.77;100314.23;88543;274;22542;-70
2023/10/07 02:29:28;;;;;;;4.10;2.60;;;;;;;9.81;83.17;100307.46;88880;278;136525;-67
2023/10/07 02:31:41;;;;;;;5.60;3.10;;;;;;;9.83;83.31;100304.25;88721;275;22526;-68
2023/10/07 02:33:45;;;;;;;3.00;2.70;;;;;;;9.85;83.59;100305.42;88598;277;137303;-68
2023/10/07 02:35:55;;;;;;;2.90;2.60;;;;;;;9.86;84.05;100295.48;88850;279;22542;-69
2023/10/07 02:38:02;;;;;;;5.10;2.90;;;;;;;9.85;84.61;100290.15;88280;282;136645;-69
2023/10/07 02:40:22;;;;;;;5.90;3.40;;;;;;;9.84;84.72;100281.58;88411;282;137351;-69
2023/10/07 02:42:28;;;;;;;6.80;3.30;;;;;;;9.80;85.52;100281.19;88473;280;22562;-69
2023/10/07 02:44:31;;;;;;;4.40;3.60;;;;;;;9.77;85.76;100286.98;88491;282;136853;-66
2023/10/07 02:46:33;;;;;;;4.70;2.60;;;;;;;9.75;86.04;100285.27;88488;282;25216;-68
2023/10/07 02:48:38;;;;;;;4.00;3.10;;;;;;;9.73;86.32;100279.11;88378;279;138067;-67
2023/10/07 02:50:42;;;;;;;3.70;2.60;;;;;;;9.72;86.46;100273.03;88724;275;22468;-67
2023/10/07 02:52:46;;;;;;;6.70;3.70;;;;;;;9.68;86.63;100261.84;88688;275;136642;-70
2023/10/07 02:55:12;;;;;;;8.00;2.90;;;;;;;9.70;86.68;100264.23;88639;275;24033;-69
2023/10/07 02:57:24;;;;;;;6.10;3.50;;;;;;;9.68;87.16;100252.21;88652;279;136601;-66
2023/10/07 02:59:29;;;;;;;4.80;3.50;;;;;;;9.67;87.50;100248.44;88536;275;24055;-66
2023/10/07 03:01:32;;;;;;;8.40;3.80;;;;;;;9.68;87.84;100238.45;88417;280;136564;-70
2023/10/07 03:03:38;;;;;;;5.40;3.40;;;;;;;9.69;87.85;100235.27;88517;275;24019;-68
2023/10/07 03:05:46;;;;;;;4.40;3.00;;;;;;;9.70;88.06;100226.74;88472;275;136829;-67
2023/10/07 03:08:01;;;;;;;6.60;3.40;;;;;;;9.72;88.15;100220.50;88619;282;22522;-70
2023/10/07 03:10:28;;;;;;;;;;;;;;;9.73;88.58;100217.48;88877;282;25242;-70
2023/10/07 03:12:36;;;;;;;4.80;2.70;;;;;;;9.76;88.95;100210.92;88742;283;124040;-68
2023/10/07 03:14:43;;;;;;;6.20;2.60;;;;;;;9.80;88.90;100211.37;89173;279;25549;-65
2023/10/07 03:16:47;;;;;;;4.90;2.80;;;;;;;9.85;89.17;100211.44;88667;282;137467;-70
2023/10/07 03:21:10;;;;;;;6.90;3.10;;;;;;;9.98;88.86;100195.70;88676;275;136522;-68
2023/10/07 03:23:17;;;;;;;2.80;2.50;;;;;;;10.04;88.65;100191.38;88635;284;22868;-69
2023/10/07 03:25:19;;;;;;;7.60;3.40;;;;;;;10.09;88.40;100177.27;88591;277;137292;-69
2023/10/07 03:27:22;;;;;;;7.50;2.90;;;;;;;10.15;88.36;100168.61;88973;278;22533;-70
2023/10/07 03:29:30;;;;;;;5.50;2.90;;;;;;;10.19;88.31;100158.51;88740;274;136707;-69
2023/10/07 03:31:47;;;;;;;4.30;3.20;;;;;;;10.25;88.16;100160.20;88900;275;25216;-68
2023/10/07 03:33:51;;;;;;;5.50;2.40;;;;;;;10.31;87.68;100155.55;88885;279;136675;-67
2023/10/07 03:37:57;;;;;;;5.10;2.80;;;;;;;10.45;87.29;100155.54;88725;275;136997;-68
2023/10/07 03:40:25;;;;;;;3.20;2.10;;;;;;;10.49;87.15;100154.30;88675;275;24025;-67
2023/10/07 03:42:22;;;;;;;5.00;2.00;;;;;;;10.53;86.68;100151.26;88498;275;25360;-69
2023/10/07 03:44:31;;;;;;;2.20;1.90;;;;;;;10.58;86.42;100143.25;88880;282;137330;-69
2023/10/07 03:46:35;;;;;;;3.90;2.40;;;;;;;10.65;85.87;100140.23;88452;282;25233;-69
2023/10/07 03:48:39;;;;;;;8.30;4.70;;;;;;;10.72;85.27;100136.11;88397;282;138082;-69
2023/10/07 03:50:41;;;;;;;4.50;2.40;;;;;;;10.79;84.89;100132.79;88551;282;24074;-68
2023/10/07 03:52:43;;;;;;;4.60;2.90;;;;;;;10.84;84.33;100127.15;88557;279;137316;-70
2023/10/07 03:54:45;;;;;;;3.40;2.60;;;;;;;10.88;84.17;100125.02;88893;275;25326;-70
2023/10/07 03:56:49;;;;;;;5.00;2.60;;;;;;;10.92;83.88;100124.70;88667;283;137369;-68
2023/10/07 03:58:52;;;;;;;5.00;2.60;;;;;;;10.87;83.58;100109.84;88607;283;25047;-68
2023/10/07 04:00:55;;;;;;;5.80;3.80;;;;;;;10.94;83.60;100112.73;88247;282;136154;-70
2023/10/07 04:03:07;;;;;;;7.10;3.00;;;;;;;10.92;83.53;100110.05;88725;279;525606;-70
2023/10/07 04:05:10;;;;;;;3.30;2.70;;;;;;;10.90;83.51;100100.20;88336;275;136561;-67
2023/10/07 04:07:12;;;;;;;6.00;3.10;;;;;;;10.87;83.62;100094.57;88673;279;25250;-68
2023/10/07 04:09:14;;;;;;;5.70;2.20;;;;;;;10.86;83.63;100089.77;88350;275;136742;-70
2023/10/07 04:11:19;;;;;;;3.80;2.60;;;;;;;10.85;83.81;100080.11;88874;274;22543;-71
2023/10/07 04:13:24;;;;;;;9.70;3.30;;;;;;;10.82;83.70;100073.50;88687;277;136888;-71
2023/10/07 04:15:29;;;;;;;5.40;3.40;;;;;;;10.81;83.59;100069.03;88839;275;24164;-69
2023/10/07 04:17:31;;;;;;;8.90;3.00;;;;;;;10.78;83.75;100063.96;89033;279;137276;-69
2023/10/07 04:19:40;;;;;;;5.10;2.40;;;;;;;10.76;83.66;100062.02;89153;282;22544;-69
2023/10/07 04:21:43;;;;;;;5.30;3.00;;;;;;;10.75;83.69;100056.11;88749;275;137821;-68
2023/10/07 04:23:45;;;;;;;5.80;3.30;;;;;;;10.73;83.32;100047.00;88819;279;23388;-69
2023/10/07 04:25:47;;;;;;;6.70;3.20;;;;;;;10.70;83.36;100042.30;88777;275;136244;-67
2023/10/07 04:27:53;;;;;;;5.50;3.20;;;;;;;10.66;83.38;100043.10;88477;275;23051;-69
2023/10/07 04:29:55;;;;;;;6.50;3.50;;;;;;;10.60;83.39;100044.36;88343;275;135941;-70
2023/10/07 04:32:05;;;;;;;6.80;3.40;;;;;;;10.55;83.49;100041.83;88973;275;22534;-68
2023/10/07 04:34:14;;;;;;;5.70;3.50;;;;;;;10.48;83.58;100031.27;89375;282;25089;-67
2023/10/07 04:36:18;;;;;;;9.20;4.00;;;;;;;10.48;83.25;100023.88;88323;281;137484;-69
2023/10/07 04:40:53;;;;;;;3.30;2.80;;;;;;;10.48;83.20;100019.98;88423;275;136820;-68
2023/10/07 04:45:22;;;;;;;4.70;2.90;;;;;;;10.49;83.18;100007.52;88501;281;136592;-68
2023/10/07 04:47:34;;;;;;;3.70;2.70;;;;;;;10.50;82.97;100004.76;88473;275;25086;-67
2023/10/07 04:49:37;;;;;;;3.80;2.80;;;;;;;10.50;82.89;99998.52;88352;282;136686;-68
2023/10/07 04:53:57;;;;;;;3.70;3.30;;;;;;;10.48;83.00;99986.94;88756;279;137448;-69
2023/10/07 04:56:01;;;;;;;5.60;3.20;;;;;;;10.45;83.33;99984.92;89107;282;25089;-70
2023/10/07 04:58:03;;;;;;;6.20;3.50;;;;;;;10.46;83.50;99980.38;88822;275;135776;-69
2023/10/07 05:00:08;;;;;;;6.50;3.00;;;;;;;10.41;83.51;99966.64;88616;282;136835;-69
2023/10/07 05:02:10;;;;;;;6.90;3.40;;;;;;;10.51;83.83;99972.66;88647;276;22553;-71
2023/10/07 05:04:15;;;;;;;4.60;3.00;;;;;;;10.55;83.50;99961.15;88747;282;136572;-70
2023/10/07 05:06:18;;;;;;;8.20;3.30;;;;;;;10.59;83.55;99958.87;89643;282;22533;-71
2023/10/07 05:08:22;;;;;;;7.80;2.80;;;;;;;10.64;82.89;99955.50;89037;279;136982;-68
2023/10/07 05:10:28;;;;;;;5.50;2.70;;;;;;;10.74;82.53;99948.90;88823;274;26173;-68
2023/10/07 05:12:30;;;;;;;4.80;2.30;;;;;;;10.84;82.20;99939.24;88661;274;136257;-68
2023/10/07 05:14:35;;;;;;;2.70;1.80;;;;;;;10.92;81.90;99942.52;88748;274;22578;-69
2023/10/07 05:16:37;;;;;;;9.90;2.50;;;;;;;10.99;81.58;99939.67;88651;275;137144;-69
2023/10/07 05:18:41;;;;;;;18.10;3.60;;;;;;;11.04;81.47;99938.21;89163;275;22526;-69
2023/10/07 05:20:46;;;;;;;10.50;2.80;;;;;;;11.12;81.17;99925.67;88671;279;136211;-69
2023/10/07 05:22:48;;;;;;;5.80;2.50;;;;;;;11.20;81.10;99924.66;88738;276;22536;-67
2023/10/07 05:24:56;;;;;;;9.90;2.70;;;;;;;11.25;80.84;99918.92;88349;275;135913;-68
2023/10/07 05:27:03;;;;;;;8.20;2.60;;;;;;;11.32;80.77;99913.05;88536;275;25088;-69
2023/10/07 05:29:07;;;;;;;6.40;2.60;;;;;;;11.35;80.32;99903.91;88056;276;136119;-70
2023/10/07 05:31:09;;;;;;;6.80;2.70;;;;;;;11.45;80.26;99907.45;88499;280;24952;-72
2023/10/07 05:33:11;;;;;;;5.80;2.40;;;;;;;11.50;79.85;99899.95;88946;278;136819;-70
2023/10/07 05:35:15;;;;;;;5.60;3.30;;;;;;;11.55;79.64;99893.98;88762;275;22534;-70
2023/10/07 05:37:17;;;;;;;5.60;2.60;;;;;;;11.59;79.44;99877.84;89893;275;137016;-70
2023/10/07 05:39:19;;;;;;;4.90;3.30;;;;;;;11.62;79.51;99877.48;88769;281;25268;-71
2023/10/07 05:41:25;;;;;;;7.50;3.00;;;;;;;11.66;79.31;99871.02;88727;281;135687;-71
2023/10/07 05:43:29;;;;;;;5.00;2.60;;;;;;;11.68;78.97;99860.71;88975;279;22527;-70
2023/10/07 05:45:30;;;;;;;4.00;3.10;;;;;;;11.70;79.08;99861.58;88993;275;136221;-71
2023/10/07 05:47:32;;;;;;;6.00;3.50;;;;;;;11.71;79.17;99853.12;88953;279;24060;-70
2023/10/07 05:49:37;;;;;;;6.70;2.70;;;;;;;11.70;79.90;99845.56;88991;279;135833;-69
2023/10/07 05:51:40;;;;;;;4.90;3.00;;;;;;;11.71;80.08;99832.41;88853;279;22518;-68
2023/10/07 05:53:45;;;;;;;10.60;2.70;;;;;;;11.73;80.06;99819.52;88162;279;136638;-69
2023/10/07 05:55:47;;;;;;;4.80;3.40;;;;;;;11.77;80.73;99817.54;88964;275;22539;-68
2023/10/07 05:57:52;;;;;;;4.10;2.60;;;;;;;11.80;81.23;99807.79;88237;276;137385;-68
2023/10/07 05:59:54;;;;;;;6.90;2.60;;;;;;;11.82;81.15;99808.28;89360;280;22552;-70
2023/10/07 06:01:59;;;;;;;6.30;3.00;;;;;;;11.87;80.97;99813.65;88483;278;136342;-71
2023/10/07 06:04:01;;;;;;;6.70;2.90;;;;;;;11.90;81.29;99810.53;88891;275;22537;-71
2023/10/07 06:06:06;;;;;;;7.30;3.10;;;;;;;11.87;82.66;99809.74;88877;274;22575;-69
2023/10/07 06:08:10;;;;;;;6.00;3.00;;;;;;;11.86;83.58;99819.30;88796;277;137027;-72
2023/10/07 06:10:12;;;;;;;9.40;2.70;;;;;;;11.86;84.18;99821.24;88816;284;25138;-68
2023/10/07 06:12:15;;;;;;;6.20;2.40;;;;;;;11.86;85.35;99820.91;88299;282;136861;-69
2023/10/07 06:14:18;;;;;;;7.10;3.20;;;;;;;11.87;85.91;99812.45;89031;275;23384;-70
2023/10/07 06:16:20;;;;;;;8.60;3.30;;;;;;;11.87;87.27;99798.73;89973;275;137878;-70
2023/10/07 06:18:23;;;;;;;7.60;3.20;;;;;;;11.84;88.45;99795.48;89438;282;22473;-68
2023/10/07 06:20:27;;;;;;;3.90;2.50;;;;;;;11.84;89.78;99792.33;89385;275;137358;-70
2023/10/07 06:22:28;;;;;;;5.90;3.60;;;;;;;11.80;89.96;99796.94;89199;282;22606;-69
2023/10/07 06:24:35;;;;;;;10.70;3.50;;;;;;;11.74;91.34;99790.23;89154;279;136531;-69
2023/10/07 06:26:37;;;;;;;6.00;3.60;;;;;;;11.72;92.21;99787.45;89345;282;24157;-70
2023/10/07 06:28:44;;;;;;;4.90;2.60;;;;;;;11.70;93.39;99785.05;89058;275;138098;-69
2023/10/07 06:30:46;;;;;;;9.00;3.10;;;;;;;11.67;94.39;99777.27;89141;274;22551;-70
2023/10/07 06:33:05;;;;;;;3.60;2.40;;;;;;;11.63;95.37;99766.71;88820;275;136528;-71
2023/10/07 06:35:13;;;;;;;7.30;2.70;;;;;;;11.60;96.09;99767.66;89065;275;23589;-70
2023/10/07 06:37:15;;;;;;;5.40;2.70;;;;;;;11.58;96.25;99753.88;89118;280;137545;-67
2023/10/07 06:39:19;;;;;;;4.40;3.00;;;;;;;11.56;96.82;99758.36;89350;274;22550;-72
2023/10/07 06:41:21;;;;;;;7.80;3.20;;;;;;;11.56;97.76;99766.15;88809;276;136875;-71
2023/10/07 06:43:23;;;;;;;11.00;3.30;;;;;;;11.56;98.16;99765.42;88910;275;24164;-71
2023/10/07 06:45:35;;;;;;;7.70;3.90;;;;;;;11.56;98.62;99769.02;88859;274;136681;-71
2023/10/07 06:47:38;;;;;;;5.50;2.70;;;;;;;11.55;99.65;99757.38;88919;278;22641;-70
2023/10/07 06:49:39;;;;;;;7.40;3.10;;;;;;;11.54;99.97;99761.80;88904;281;136366;-69
2023/10/07 06:51:43;;;;;;;4.50;2.70;;;;;;;11.54;99.97;99759.34;88820;282;22599;-69
2023/10/07 06:53:45;;;;;;;6.00;3.20;;;;;;;11.53;100.00;99755.15;88857;282;136566;-70
2023/10/07 06:55:54;;;;;;;8.20;3.60;;;;;;;11.55;100.00;99754.48;89005;275;22933;-70
2023/10/07 06:57:56;;;;;;;5.80;3.00;;;;;;;11.57;100.00;99767.17;88628;275;136669;-71
2023/10/07 06:59:58;;;;;;;4.40;3.00;;;;;;;11.59;100.00;99758.38;88782;275;25215;-70
2023/10/07 07:02:06;;;;;;;8.00;3.00;;;;;;;11.60;100.00;99761.46;88624;275;136180;-71
2023/10/07 07:04:10;;;;;;;7.40;3.00;;;;;;;11.61;100.00;99760.85;88833;275;136958;-70
2023/10/07 07:06:17;;;;;;;3.60;2.80;;;;;;;11.59;100.00;99750.38;88913;277;22859;-68
2023/10/07 07:08:24;;;;;;;4.60;2.60;;;;;;;11.58;100.00;99748.66;88880;282;137030;-70
2023/10/07 07:10:30;;;;;;;4.70;2.70;;;;;;;11.55;100.00;99741.97;88826;278;25118;-70
2023/10/07 07:12:33;;;;;;;6.30;3.40;;;;;;;11.54;100.00;99734.50;88495;282;137451;-68
2023/10/07 07:14:42;;;;;;;3.40;2.80;;;;;;;11.54;100.00;99719.06;88792;274;24159;-69
2023/10/07 07:16:48;;;;;;;7.40;3.20;;;;;;;11.53;100.00;99717.45;88581;281;137867;-70
2023/10/07 07:18:51;;;;;;;3.90;2.50;;;;;;;11.53;100.00;99712.29;88606;283;22844;-70
2023/10/07 07:22:58;;;;;;;4.50;3.40;;;;;;;11.54;100.00;99698.24;88997;282;25163;-69
2023/10/07 07:25:07;;;;;;;4.30;2.80;;;;;;;11.55;100.00;99686.59;89027;274;137218;-72
2023/10/07 07:27:09;;;;;;;8.40;3.40;;;;;;;11.57;100.00;99672.41;89178;275;23375;-71
2023/10/07 07:29:17;;;;;;;9.40;2.80;;;;;;;11.58;100.00;99671.59;88601;276;136191;-72
2023/10/07 07:31:19;;;;;;;6.70;2.80;;;;;;;11.56;100.00;99674.14;89094;278;25080;-75
2023/10/07 07:33:28;;;;;;;6.30;2.70;;;;;;;11.53;100.00;99679.03;88961;281;137699;-74
2023/10/07 07:35:43;;;;;;;3.70;2.30;;;;;;;11.49;100.00;99667.58;88897;278;22901;-70
2023/10/07 07:37:45;;;;;;;10.90;3.20;;;;;;;11.46;100.00;99655.68;88552;279;136691;-72
2023/10/07 07:39:48;;;;;;;4.60;2.90;;;;;;;11.43;100.00;99658.09;88687;275;25173;-74
2023/10/07 07:41:57;;;;;;;3.70;2.60;;;;;;;11.32;100.00;99647.86;88699;282;136587;-74
2023/10/07 07:44:00;;;;;;;5.60;3.20;;;;;;;11.35;100.00;99660.40;89224;281;22751;-71
2023/10/07 07:46:18;;;;;;;3.90;2.80;;;;;;;11.32;100.00;99660.50;88848;282;136466;-73
2023/10/07 07:48:21;;;;;;;5.10;2.40;;;;;;;11.29;100.00;99653.39;88556;281;137541;-73
2023/10/07 07:50:23;;;;;;;6.00;3.00;;;;;;;11.27;100.00;99650.16;89014;275;25131;-74
2023/10/07 07:52:25;;;;;;;6.00;3.30;;;;;;;11.24;100.00;99642.66;88800;273;136769;-72
2023/10/07 07:54:29;;;;;;;5.30;2.30;;;;;;;11.17;100.00;99634.44;88962;274;22844;-73
2023/10/07 07:56:31;;;;;;;6.30;3.60;;;;;;;11.21;100.00;99638.73;88943;273;136763;-72
2023/10/07 07:58:33;;;;;;;3.60;2.10;;;;;;;11.19;100.00;99627.55;89043;273;22542;-73
2023/10/07 08:00:40;;;;;;;3.40;2.20;;;;;;;11.17;100.00;99623.27;88830;274;136707;-70
2023/10/07 08:05:09;;;;;;;6.50;2.30;;;;;;;11.08;100.00;99627.73;86971;307;602901;-74
2023/10/07 08:07:24;;;;;;;4.90;2.80;;;;;;;11.13;100.00;99627.30;88229;287;25130;-73
2023/10/07 08:09:28;;;;;;;3.60;2.40;;;;;;;11.16;100.00;99619.46;88387;280;136223;-70
2023/10/07 08:11:35;;;;;;;4.40;2.20;;;;;;;11.15;100.00;99619.42;88625;281;22538;-74
2023/10/07 08:13:37;;;;;;;5.00;2.70;;;;;;;11.13;100.00;99620.80;88535;287;135900;-70
2023/10/07 08:15:41;;;;;;;4.30;3.40;;;;;;;11.13;100.00;99608.59;88342;282;25089;-72
2023/10/07 08:17:45;;;;;;;4.00;3.40;;;;;;;11.12;100.00;99596.11;88134;289;136112;-70
2023/10/07 08:19:50;;;;;;;6.40;2.30;;;;;;;11.13;100.00;99595.88;88275;278;489765;-71
2023/10/07 08:21:52;;;;;;;4.30;2.80;;;;;;;11.13;100.00;99592.35;88754;278;137716;-69
2023/10/07 08:23:54;;;;;;;4.90;3.10;;;;;;;11.13;100.00;99585.25;88749;282;25173;-70
2023/10/07 08:26:06;;;;;;;5.80;3.00;;;;;;;11.08;100.00;99572.51;88509;278;138017;-71
2023/10/07 08:28:23;;;;;;;6.30;3.90;;;;;;;11.14;100.00;99592.75;88460;278;137417;-74
2023/10/07 08:30:37;;;;;;;4.00;3.00;;;;;;;11.14;100.00;99585.73;88550;286;25401;-72
2023/10/07 08:32:41;;;;;;;6.00;3.20;;;;;;;11.15;100.00;99587.83;88513;286;136525;-70
2023/10/07 08:34:47;;;;;;;5.10;3.10;;;;;;;11.15;100.00;99579.98;88918;282;22566;-73
2023/10/07 08:36:49;;;;;;;7.10;3.00;;;;;;;11.15;100.00;99581.52;89270;285;136438;-71
2023/10/07 08:38:52;;;;;;;5.60;3.50;;;;;;;11.15;100.00;99587.95;88596;284;23728;-71
2023/10/07 08:41:10;;;;;;;10.00;3.30;;;;;;;11.16;100.00;99581.05;88465;280;136832;-72
2023/10/07 08:43:19;;;;;;;6.40;3.60;;;;;;;11.16;100.00;99576.58;88722;285;22478;-70
2023/10/07 08:45:23;;;;;;;7.10;3.30;;;;;;;11.13;100.00;99555.71;88667;282;136487;-73
2023/10/07 08:47:27;;;;;;;5.60;2.70;;;;;;;11.13;100.00;99560.41;88931;278;25430;-72
2023/10/07 08:49:32;;;;;;;3.20;2.50;;;;;;;11.13;100.00;99576.71;88660;280;136341;-73
2023/10/07 08:51:40;;;;;;;5.70;2.90;;;;;;;11.11;100.00;99554.48;89044;277;22573;-71
2023/10/07 08:53:42;;;;;;;3.20;2.80;;;;;;;11.10;100.00;99561.49;90934;285;138699;-71
2023/10/07 08:55:46;;;;;;;6.50;3.30;;;;;;;11.11;100.00;99565.52;89090;278;24040;-72
2023/10/07 08:57:49;;;;;;;6.30;2.90;;;;;;;11.14;100.00;99545.04;89458;278;136320;-70
2023/10/07 08:59:59;;;;;;;3.20;2.50;;;;;;;11.17;100.00;99540.39;89075;287;22537;-71
2023/10/07 09:02:03;;;;;;;16.40;3.70;;;;;;;11.18;100.00;99550.77;89498;283;136355;-71
2023/10/07 09:04:07;;;;;;;5.50;3.50;;;;;;;11.11;100.00;99534.95;89187;283;138072;-73
2023/10/07 09:06:11;;;;;;;6.50;3.70;;;;;;;11.19;100.00;99544.84;90000;280;22591;-69
2023/10/07 09:08:12;;;;;;;4.30;2.70;;;;;;;11.21;100.00;99537.54;88680;278;137938;-72
2023/10/07 09:10:15;;;;;;;4.50;2.80;;;;;;;11.23;100.00;99538.05;88831;277;25174;-72
2023/10/07 09:12:30;;;;;;;10.10;3.40;;;;;;;11.25;100.00;99535.45;88793;276;136954;-73
2023/10/07 09:14:33;;;;;;;6.30;2.90;;;;;;;11.30;100.00;99519.39;88813;283;22878;-74
2023/10/07 09:16:38;;;;;;;3.90;3.00;;;;;;;11.30;100.00;99512.53;88595;276;136690;-70
2023/10/07 09:18:44;;;;;;;4.00;3.00;;;;;;;11.32;100.00;99520.90;88766;284;22547;-71
2023/10/07 09:20:50;;;;;;;5.00;3.70;;;;;;;11.35;100.00;99512.75;88664;284;136482;-72
2023/10/07 09:22:53;;;;;;;5.40;3.40;;;;;;;11.36;100.00;99500.30;89051;284;22553;-72
2023/10/07 09:25:08;;;;;;;4.20;3.10;;;;;;;11.35;100.00;99504.55;88719;284;136473;-81
2023/10/07 09:27:13;;;;;;;7.90;3.40;;;;;;;11.38;100.00;99493.86;88675;277;25275;-79
2023/10/07 09:29:15;;;;;;;4.30;3.10;;;;;;;11.40;100.00;99502.43;88939;281;137497;-80
2023/10/07 09:31:19;;;;;;;5.00;3.30;;;;;;;11.44;100.00;99499.45;88705;281;25210;-73
2023/10/07 09:33:21;;;;;;;6.60;3.80;;;;;;;11.41;100.00;99465.93;88686;277;136539;-72
2023/10/07 09:35:25;;;;;;;6.00;3.50;;;;;;;11.53;100.00;99492.33;88742;284;22556;-73
2023/10/07 09:37:32;;;;;;;4.90;3.50;;;;;;;11.56;100.00;99487.31;88599;276;136348;-72
2023/10/07 09:39:43;;;;;;;5.70;4.10;;;;;;;11.62;100.00;99477.33;88714;284;25109;-74
2023/10/07 09:42:03;;;;;;;6.20;3.90;;;;;;;11.69;100.00;99473.06;88480;277;136755;-71
2023/10/07 09:44:25;;;;;;;9.90;5.00;;;;;;;11.75;100.00;99475.55;88303;285;136695;-73
2023/10/07 09:46:28;;;;;;;12.70;4.90;;;;;;;11.82;100.00;99479.31;88780;275;22613;-72
2023/10/07 09:48:33;;;;;;;8.50;4.50;;;;;;;11.88;100.00;99482.52;88450;278;137428;-72
2023/10/07 09:50:37;;;;;;;6.80;4.40;;;;;;;11.94;100.00;99478.35;89219;284;23711;-72
2023/10/07 09:52:42;;;;;;;4.60;3.80;;;;;;;12.00;100.00;99472.91;88918;277;137816;-72
2023/10/07 09:54:55;;;;;;;6.40;4.40;;;;;;;12.05;100.00;99476.98;88932;280;25124;-73
2023/10/07 09:57:22;;;;;;;13.10;5.70;;;;;;;12.10;100.00;99465.92;88636;277;138628;-74
2023/10/07 09:59:40;;;;;;;5.70;4.90;;;;;;;12.14;100.00;99455.08;88732;276;25086;-72
2023/10/07 10:01:54;;;;;;;7.70;5.90;;;;;;;12.20;100.00;99447.62;88712;276;153151;-73
2023/10/07 10:04:11;;;;;;;7.60;5.00;;;;;;;12.26;100.00;99445.13;88989;278;22562;-71
2023/10/07 10:06:25;;;;;;;4.60;4.20;;;;;;;12.31;100.00;99438.60;88923;276;25168;-72
2023/10/07 10:08:56;;;;;;;5.50;4.30;;;;;;;12.38;100.00;99430.25;88611;284;136079;-72
2023/10/07 10:11:08;;;;;;;5.90;4.60;;;;;;;12.42;100.00;99421.44;88710;283;25109;-75
2023/10/07 10:13:28;;;;;;;4.90;4.40;;;;;;;12.47;100.00;99414.81;88732;276;136394;-72